Date,TemperatureHighF,TemperatureAvgF,TemperatureLowF,DewpointHighF,DewpointAvgF,DewpointLowF,HumidityHigh,HumidityAvg,HumidityLow,PressureMaxIn,PressureMinIn,WindSpeedMaxMPH,WindSpeedAvgMPH,GustSpeedMaxMPH,PrecipitationSumIn
2013-1-1,76,66,57,62,59,55,96,79,60,30.22,30.05,15,3,17,0.00
2013-1-2,79,68,59,69,64,58,99,86,61,30.08,29.98,9,4,14,0.00
2013-1-3,76,66,59,70,64,59,100,96,70,30.17,30.03,13,4,18,0.06
2013-1-4,63,59,57,62,59,57,100,99,96,30.28,30.15,13,8,17,0.00
2013-1-5,74,65,56,66,61,55,100,89,71,30.31,30.18,15,6,18,0.00
2013-1-6,79,69,63,72,67,63,100,94,73,30.21,30.06,8,4,29,0.28
2013-1-7,69,64,60,68,62,58,100,93,81,30.22,30.11,15,8,18,0.01
2013-1-8,81,70,62,71,67,62,100,89,68,30.23,30.13,10,5,13,0.00
2013-1-9,84,74,68,73,70,67,100,87,59,30.30,30.18,12,5,16,0.00
2013-1-10,82,73,67,71,68,64,100,84,56,30.30,30.21,15,6,17,0.00
2013-1-11,80,71,65,71,67,64,99,88,67,30.27,30.15,13,4,15,0.00
2013-1-12,80,71,62,70,65,62,100,84,59,30.20,30.09,12,4,16,0.00
2013-1-13,80,71,62,69,65,61,99,84,57,30.16,30.07,9,3,11,0.01
2013-1-14,80,70,61,68,64,61,100,83,58,30.20,30.11,10,2,13,0.00
2013-1-15,81,70,63,70,66,63,100,86,59,30.15,30.05,9,2,12,0.01
2013-1-16,81,72,64,67,64,60,99,78,50,30.11,30.00,11,3,15,0.00
2013-1-17,75,64,54,71,60,48,100,89,73,30.14,30.00,16,7,23,0.00
2013-1-18,63,54,42,61,50,39,98,88,78,30.30,30.14,19,9,22,0.01
2013-1-19,73,64,55,65,60,53,96,86,72,30.28,30.14,18,10,21,0.00
2013-1-20,73,65,60,66,62,59,100,91,75,30.18,30.04,10,6,15,0.00
2013-1-21,72,66,60,68,61,55,91,85,74,30.11,30.00,11,4,13,0.00
2013-1-22,66,59,52,56,48,40,85,67,40,30.29,30.07,16,8,21,0.00
2013-1-23,69,57,46,47,42,35,87,60,29,30.38,30.27,11,5,17,0.00
2013-1-24,72,60,50,56,48,37,93,67,43,30.35,30.23,12,5,15,0.00
2013-1-25,74,62,52,59,53,49,98,74,42,30.33,30.18,10,4,13,0.00
2013-1-26,75,63,51,59,55,50,99,77,49,30.29,30.17,11,4,13,0.00
2013-1-27,77,66,56,64,59,54,100,81,50,30.32,30.22,11,4,13,0.01
2013-1-28,79,69,62,69,65,61,100,88,60,30.34,30.22,10,4,16,0.01
2013-1-29,82,71,63,71,67,63,100,87,59,30.26,30.10,12,5,16,0.00
2013-1-30,82,72,64,68,66,63,99,84,58,30.12,29.92,16,8,26,0.00
2013-1-31,69,58,49,67,46,31,98,69,32,30.25,29.92,16,8,29,0.06
2013-2-1,67,55,46,47,37,27,83,55,23,30.37,30.24,14,7,20,0.00
2013-2-2,72,58,46,48,44,37,87,62,30,30.32,30.15,9,4,11,0.00
2013-2-3,70,58,48,55,47,37,89,68,46,30.22,30.08,14,7,20,0.00
2013-2-4,70,58,49,51,43,37,93,60,31,30.16,30.04,10,4,12,0.00
2013-2-5,76,63,48,57,48,37,85,61,43,30.11,30.00,11,3,13,0.00
2013-2-6,78,69,60,64,58,53,86,70,53,30.12,30.03,10,2,13,0.00
2013-2-7,81,70,61,67,63,58,96,80,51,30.08,29.87,19,6,26,0.01
2013-2-8,80,69,58,66,61,55,97,79,43,30.09,29.89,13,7,17,0.00
2013-2-9,75,64,55,60,58,54,99,82,48,30.21,30.08,14,8,18,0.00
2013-2-10,79,68,58,63,60,57,94,78,55,30.27,30.15,14,7,20,0.00
2013-2-11,81,70,60,66,63,59,98,80,52,30.21,30.07,12,4,17,0.00
2013-2-12,82,72,64,70,66,63,98,84,54,30.11,29.95,14,6,19,0.00
2013-2-13,84,73,63,72,68,58,99,85,62,29.99,29.86,20,9,29,0.08
2013-2-14,66,62,60,64,60,57,99,92,81,30.05,29.94,14,4,19,0.34
2013-2-15,68,60,56,62,58,52,100,91,70,30.09,29.96,9,5,13,0.09
2013-2-16,67,57,52,55,48,34,97,73,49,30.13,29.94,23,8,26,0.00
2013-2-17,54,47,40,38,29,19,69,51,26,30.36,30.14,19,9,28,0.00
2013-2-18,68,53,38,51,42,31,87,67,45,30.37,30.22,14,6,19,0.00
2013-2-19,76,65,53,61,54,48,91,72,50,30.23,30.08,15,4,25,0.00
2013-2-20,78,67,60,65,62,57,100,85,61,30.13,30.01,10,4,14,0.00
2013-2-21,81,70,59,67,62,57,97,78,52,30.12,29.99,8,4,12,0.00
2013-2-22,85,73,63,70,66,63,99,81,48,30.09,29.98,16,4,17,0.00
2013-2-23,84,75,68,71,69,67,98,84,59,30.02,29.89,15,6,23,0.00
2013-2-24,82,72,68,71,69,67,99,89,64,29.97,29.88,12,5,18,0.00
2013-2-25,84,74,66,72,67,65,100,82,54,29.92,29.78,15,6,21,0.00
2013-2-26,76,71,64,73,69,63,97,92,80,29.89,29.73,17,7,27,0.17
2013-2-27,75,65,56,63,58,52,97,81,53,29.98,29.88,11,4,15,0.00
2013-2-28,73,62,55,56,53,49,92,73,47,30.02,29.90,15,6,21,0.00
2013-3-1,62,55,52,51,44,39,85,67,48,30.03,29.93,14,7,17,0.00
2013-3-2,57,52,46,44,40,37,77,65,49,30.08,29.98,16,7,28,0.00
2013-3-3,52,46,39,43,36,32,87,70,54,30.18,30.01,17,8,25,0.00
2013-3-4,66,51,39,43,34,28,85,56,27,30.26,30.13,12,4,17,0.00
2013-3-5,74,60,48,59,49,38,95,69,40,30.20,30.05,13,6,23,0.00
2013-3-6,65,58,48,63,44,31,96,65,28,30.15,29.96,22,10,28,0.01
2013-3-7,68,53,43,45,39,35,86,61,35,30.24,30.12,12,7,19,0.00
2013-3-8,75,59,44,52,43,36,91,61,24,30.24,30.11,12,4,15,0.00
2013-3-9,73,62,52,55,51,48,88,69,45,30.23,30.13,12,5,16,0.00
2013-3-10,78,66,57,60,56,54,93,72,46,30.17,30.05,17,7,24,0.00
2013-3-11,78,68,57,61,59,56,95,75,52,30.11,29.92,16,5,26,0.00
2013-3-12,70,65,55,68,62,53,99,90,80,30.04,29.88,19,7,22,0.29
2013-3-13,73,61,53,53,45,37,94,60,27,30.19,30.05,19,9,24,0.00
2013-3-14,67,56,50,50,38,29,88,54,24,30.29,30.16,21,9,25,0.00
2013-3-15,71,57,45,46,41,35,87,59,31,30.31,30.15,14,5,16,0.00
2013-3-16,78,63,49,56,47,41,92,60,29,30.21,30.05,11,4,16,0.00
2013-3-17,76,66,52,61,56,50,97,74,51,30.14,30.00,13,3,16,0.00
2013-3-18,77,68,63,67,63,58,96,84,66,30.06,29.86,15,5,24,0.01
2013-3-19,84,72,63,68,64,62,100,80,52,30.02,29.89,9,4,14,0.00
2013-3-20,74,68,61,64,61,58,95,79,63,29.97,29.81,15,6,18,0.02
2013-3-21,70,59,52,59,44,28,97,63,25,30.00,29.88,17,7,22,0.00
2013-3-22,77,62,48,68,54,41,99,77,46,30.03,29.90,13,5,20,1.00
2013-3-23,84,72,63,74,68,63,100,87,63,30.00,29.79,19,6,25,0.00
2013-3-24,80,74,70,73,72,68,98,90,76,29.84,29.65,26,10,35,0.03
2013-3-25,70,63,52,68,48,32,95,63,28,30.05,29.75,19,8,22,0.00
2013-3-26,57,52,45,46,36,30,77,56,38,30.25,30.05,23,11,28,0.00
2013-3-27,61,49,40,40,35,29,84,62,31,30.34,30.21,15,7,19,0.00
2013-3-28,70,56,42,44,38,32,89,58,27,30.31,30.18,13,5,16,0.00
2013-3-29,73,61,51,50,43,35,84,56,26,30.34,30.20,10,4,17,0.00
2013-3-30,77,65,53,55,51,46,92,62,39,30.27,30.12,12,3,17,0.00
2013-3-31,80,69,58,61,56,51,84,65,38,30.18,30.01,13,5,19,0.00
2013-4-1,80,72,62,67,64,61,97,78,55,30.04,29.95,14,6,20,0.00
2013-4-2,83,72,63,66,62,58,99,74,43,30.09,30.00,10,4,16,0.01
2013-4-3,85,73,63,69,65,60,97,77,51,30.08,29.94,12,5,20,0.02
2013-4-4,70,69,66,70,67,64,98,95,85,30.05,29.87,14,7,20,0.61
2013-4-5,74,68,62,69,63,57,97,85,59,29.98,29.82,18,7,27,0.07
2013-4-6,77,66,55,63,59,53,98,80,54,30.13,29.98,22,8,22,0.00
2013-4-7,80,70,61,65,61,57,98,75,45,30.16,30.06,12,5,16,0.00
2013-4-8,83,72,62,64,61,56,96,70,42,30.14,30.05,13,4,19,0.00
2013-4-9,82,72,63,69,64,61,98,78,59,30.16,30.08,13,5,17,0.00
2013-4-10,87,75,63,71,66,61,97,75,48,30.12,29.96,11,4,18,0.00
2013-4-11,86,77,71,74,72,70,99,85,61,30.00,29.83,19,7,21,0.06
2013-4-12,83,77,73,75,73,72,98,89,73,29.91,29.80,21,8,32,0.00
2013-4-13,85,77,70,73,69,65,94,78,54,29.98,29.87,13,4,13,0.00
2013-4-14,88,76,68,75,70,62,96,80,59,30.00,29.84,27,7,36,0.00
2013-4-15,88,78,66,73,67,62,94,72,51,30.08,29.94,10,5,18,0.00
2013-4-16,74,73,73,71,70,70,92,91,89,30.07,30.06,3,2,5,0.00
2013-4-20,74,69,62,68,65,60,96,88,79,30.15,30.01,14,9,21,0.02
2013-4-21,80,70,61,72,66,60,98,90,73,30.14,30.01,12,7,16,0.03
2013-4-22,78,71,66,71,68,65,100,92,73,30.09,29.98,16,7,22,0.11
2013-4-23,81,72,65,68,65,63,98,80,55,30.11,30.02,16,9,21,0.00
2013-4-24,85,73,60,68,63,59,99,73,42,30.15,30.06,9,4,13,0.00
2013-4-25,86,75,65,68,64,58,93,70,41,30.21,30.10,10,2,14,0.00
2013-4-26,85,76,67,69,65,63,94,71,49,30.25,30.14,13,4,16,0.00
2013-4-27,83,75,68,70,68,65,99,81,56,30.23,30.09,14,6,18,0.00
2013-4-28,86,75,65,68,64,60,97,72,43,30.13,29.97,11,5,19,0.00
2013-4-29,86,75,67,69,66,62,93,75,46,30.04,29.89,9,4,16,0.00
2013-4-30,88,74,66,72,68,65,98,85,51,30.02,29.89,20,4,23,0.19
2013-5-1,77,71,66,74,70,66,100,97,88,30.01,29.93,10,4,24,0.76
2013-5-2,75,70,64,72,69,64,100,95,86,29.98,29.82,11,6,17,0.25
2013-5-3,82,72,67,72,69,67,100,92,61,29.84,29.70,18,5,24,0.05
2013-5-4,80,73,68,70,68,67,99,86,66,29.80,29.67,13,7,19,0.00
2013-5-5,76,69,63,68,57,47,97,69,40,29.95,29.78,18,8,25,0.00
2013-5-6,76,68,60,63,58,54,91,71,47,30.02,29.91,14,6,20,0.00
2013-5-7,61,61,60,55,55,54,82,80,78,30.02,29.99,4,3,5,0.00
2013-5-8,80,74,67,62,60,57,84,62,48,30.14,30.06,11,5,18,0.00
2013-5-9,85,74,63,66,62,59,97,70,42,30.16,30.07,8,3,14,0.00
2013-5-10,90,78,67,74,68,64,98,73,44,30.14,29.99,13,4,16,0.00
2013-5-11,86,77,70,75,71,67,97,83,63,30.06,29.97,12,5,18,0.07
2013-5-12,86,77,71,75,71,66,100,81,59,30.05,29.94,15,5,18,0.00
2013-5-13,83,73,66,69,62,50,96,71,40,30.13,30.01,14,6,18,0.00
2013-5-14,81,71,59,61,56,49,86,61,34,30.21,30.11,13,5,17,0.00
2013-5-15,84,73,64,64,60,55,90,67,43,30.22,30.08,12,4,17,0.00
2013-5-16,86,75,64,65,62,58,94,68,39,30.14,30.00,10,4,17,0.00
2013-5-17,87,77,66,69,65,59,93,69,39,30.10,30.02,12,3,15,0.00
2013-5-18,73,72,70,69,68,68,93,89,86,30.09,30.06,4,2,8,0.00
2013-5-22,85,78,73,74,72,69,97,84,61,29.96,29.89,9,3,15,0.04
2013-5-23,89,79,71,75,72,70,100,82,54,30.01,29.92,9,3,14,0.15
2013-5-24,92,81,72,76,69,59,98,71,34,30.08,29.98,11,5,18,0.04
2013-5-25,86,79,73,73,68,64,92,71,50,30.18,30.06,16,8,19,0.01
2013-5-26,84,75,65,66,63,58,94,69,42,30.22,30.11,14,5,17,0.01
2013-5-27,87,76,65,70,66,61,96,72,43,30.18,30.07,12,6,22,0.01
2013-5-28,87,75,69,75,71,68,98,88,61,30.14,30.05,14,6,25,0.00
2013-5-29,81,75,71,76,73,70,100,93,76,30.12,30.05,13,6,22,0.02
2013-5-30,83,77,73,76,73,70,99,87,71,30.10,30.02,20,8,31,0.00
2013-5-31,85,78,71,75,72,69,95,83,67,30.09,30.01,14,7,19,0.02
2013-6-1,87,78,73,78,74,72,98,89,68,30.06,29.94,13,6,18,0.02
2013-6-2,89,79,74,77,75,73,100,89,63,30.00,29.89,11,3,21,0.02
2013-6-3,85,77,73,77,75,73,100,93,70,30.01,29.91,15,3,19,0.04
2013-6-4,82,76,72,75,73,70,99,90,74,30.03,29.95,16,4,18,0.03
2013-6-5,83,76,72,79,74,72,100,94,76,30.02,29.90,12,4,15,0.03
2013-6-6,78,75,73,77,74,72,100,97,89,29.91,29.68,20,10,31,0.06
2013-6-7,85,77,72,77,74,72,100,92,72,29.95,29.78,12,5,16,0.19
2013-6-8,87,76,72,77,74,72,100,93,72,30.11,29.96,13,4,25,0.08
2013-6-9,89,80,72,78,75,72,100,87,59,30.11,30.00,13,4,14,0.24
2013-6-10,89,80,74,78,76,73,100,87,61,30.09,29.99,10,4,13,0.15
2013-6-11,88,79,75,79,75,70,99,88,58,30.08,29.99,12,3,16,0.19
2013-6-12,92,80,72,76,73,69,97,80,54,30.09,30.00,18,2,21,0.15
2013-6-13,91,81,73,78,75,71,97,83,58,30.04,29.90,11,4,25,0.32
2013-6-14,88,81,74,77,74,71,99,81,60,29.95,29.87,12,5,16,0.17
2013-6-15,90,80,76,79,76,74,98,89,68,30.06,29.92,14,4,19,0.07
2013-6-16,92,82,76,78,76,74,98,84,57,30.08,29.99,9,4,14,0.02
2013-6-17,93,84,76,78,76,72,99,79,54,30.08,29.97,12,3,25,0.00
2013-6-18,91,83,74,77,75,71,97,78,56,30.07,29.96,12,4,15,0.00
2013-6-19,91,82,75,77,75,73,96,80,60,30.05,29.97,11,4,19,0.00
2013-6-22,91,84,76,76,72,67,94,72,45,30.11,30.03,13,5,20,0.24
2013-6-23,90,78,72,78,75,71,98,90,56,30.15,30.06,11,3,24,0.59
2013-6-24,91,81,74,77,75,71,99,83,53,30.18,30.07,11,4,17,0.24
2013-6-25,90,82,75,77,75,73,98,80,58,30.15,30.02,13,4,15,0.01
2013-6-26,90,79,73,77,74,71,98,87,60,30.09,29.99,15,3,26,0.32
2013-6-27,91,80,72,76,73,70,98,80,51,30.06,29.94,12,3,14,0.04
2013-6-28,89,81,76,79,75,72,95,84,65,29.98,29.86,12,5,22,0.00
2013-6-29,87,79,75,78,76,72,99,90,69,29.88,29.81,12,5,22,0.00
2013-6-30,85,76,74,79,74,72,98,94,78,29.89,29.82,17,6,25,0.00
2013-7-1,80,74,72,77,74,71,100,97,88,30.01,29.86,13,6,18,0.00
2013-7-2,83,75,72,79,74,72,100,96,81,30.10,29.97,14,4,28,0.03
2013-7-3,89,76,72,79,75,72,100,95,69,30.13,30.05,22,4,26,0.00
2013-7-4,87,77,71,79,74,69,100,92,70,30.15,30.07,29,5,37,0.94
2013-7-5,85,77,73,78,75,72,100,95,78,30.15,30.07,16,4,21,0.34
2013-7-8,90,84,76,79,74,72,92,73,58,30.19,30.10,9,4,13,0.24
2013-7-9,90,80,72,77,74,72,100,83,55,30.20,30.09,13,3,19,0.00
2013-7-10,89,79,72,77,74,72,100,86,59,30.12,30.00,9,2,20,0.30
2013-7-11,88,77,73,77,74,72,99,91,66,30.07,30.01,13,3,19,0.04